Terminal Aerodrome Forecast
Issued by NWS Louisville, KY

Home | Current Version | Previous Version | Text Only | Print | Product List | Glossary On
Versions: 1 2 3 4 5 6 7 8 9 10 11 12 13 14 15 16 17 18 19 20 21
000
FTUS43 KLMK 251134
TAFLEX
TAF
KLEX 251134Z 2512/2612 23013KT 5SM -SHRA OVC007
     FM251900 27014KT 6SM -SHRA OVC008
     FM252000 27014KT P6SM VCSH OVC015
     FM252200 27013KT P6SM VCSH OVC025
     FM260100 26008KT P6SM BKN045=

USA.gov is the U.S. government's official web portal to all federal, state and local government web resources and services.